createdAt,value
2023-03-15T00:02:11.910Z,98314.03
2023-03-15T00:04:42.266Z,98325.22
2023-03-15T00:07:12.776Z,98316.78
2023-03-15T00:09:44.756Z,98319.47
2023-03-15T00:12:18.066Z,98320.09
2023-03-15T00:14:50.002Z,98312.72
2023-03-15T00:17:25.836Z,98322.75
2023-03-15T00:20:02.152Z,98316.78
2023-03-15T00:22:33.850Z,98317.97
2023-03-15T00:25:18.779Z,98324.00
2023-03-15T00:31:10.199Z,98324.63
2023-03-15T00:33:45.774Z,98338.06
2023-03-15T00:36:16.235Z,98330.59
2023-03-15T00:41:37.135Z,98352.50
2023-03-15T00:44:06.050Z,98340.56
2023-03-15T00:46:42.591Z,98332.56
2023-03-15T00:49:12.238Z,98350.31
2023-03-15T00:51:42.867Z,98348.75
2023-03-15T00:54:20.212Z,98352.91
2023-03-15T00:56:54.248Z,98355.56
2023-03-15T00:59:35.767Z,98353.88
2023-03-15T01:02:04.473Z,98351.34
2023-03-15T01:04:42.837Z,98352.56
2023-03-15T01:07:17.444Z,98340.78
2023-03-15T01:10:41.234Z,98369.78
2023-03-15T01:12:43.233Z,98365.41
2023-03-15T01:15:18.684Z,98364.16
2023-03-15T01:20:38.915Z,98373.06
2023-03-15T01:23:10.111Z,98372.97
2023-03-15T01:25:49.165Z,98382.63
2023-03-15T01:28:17.962Z,98382.16
2023-03-15T01:30:52.626Z,98396.78
2023-03-15T01:33:25.168Z,98398.97
2023-03-15T01:36:10.987Z,98397.34
2023-03-15T01:38:45.284Z,98408.66
2023-03-15T01:41:16.352Z,98400.63
2023-03-15T01:44:01.237Z,98406.69
2023-03-15T01:46:36.813Z,98403.88
2023-03-15T01:49:19.933Z,98409.91
2023-03-15T01:52:11.518Z,98412.81
2023-03-15T01:54:56.350Z,98420.31
2023-03-15T01:57:32.771Z,98425.38
2023-03-15T02:00:22.682Z,98433.78
2023-03-15T02:03:13.573Z,98433.38
2023-03-15T02:05:55.940Z,98434.38
2023-03-15T02:08:47.919Z,98456.06
2023-03-15T02:11:21.863Z,98467.19
2023-03-15T02:13:53.617Z,98477.97
2023-03-15T02:16:25.275Z,98484.75
2023-03-15T02:18:58.342Z,98487.38
2023-03-15T02:21:57.259Z,98481.78
2023-03-15T02:24:46.166Z,98481.31
2023-03-15T02:27:25.401Z,98481.91
2023-03-15T02:29:58.392Z,98473.34
2023-03-15T02:32:35.165Z,98493.44
2023-03-15T02:35:05.115Z,98481.69
2023-03-15T02:37:40.996Z,98489.09
2023-03-15T02:40:26.944Z,98489.97
2023-03-15T02:43:02.755Z,98492.41
2023-03-15T02:45:34.490Z,98486.13
2023-03-15T02:48:12.035Z,98502.63
2023-03-15T02:50:53.799Z,98500.56
2023-03-15T02:53:36.873Z,98491.81
2023-03-15T02:56:06.677Z,98502.47
2023-03-15T02:58:59.258Z,98507.75
2023-03-15T03:01:26.913Z,98508.41
2023-03-15T03:03:56.961Z,98514.41
2023-03-15T03:06:29.857Z,98514.25
2023-03-15T03:08:59.773Z,98524.31
2023-03-15T03:11:31.045Z,98520.28
2023-03-15T03:13:58.917Z,98515.03
2023-03-15T03:16:26.274Z,98508.03
2023-03-15T03:19:02.341Z,98506.75
2023-03-15T03:21:40.897Z,98516.44
2023-03-15T03:24:16.327Z,98512.72
2023-03-15T03:26:58.552Z,98523.59
2023-03-15T03:29:35.088Z,98522.22
2023-03-15T03:32:10.000Z,98525.16
2023-03-15T03:34:49.044Z,98532.69
2023-03-15T03:37:24.693Z,98532.28
2023-03-15T03:39:59.758Z,98533.47
2023-03-15T03:42:27.615Z,98539.19
2023-03-15T03:44:56.464Z,98549.09
2023-03-15T03:47:28.645Z,98550.34
2023-03-15T03:49:56.272Z,98559.56
2023-03-15T03:52:28.339Z,98564.63
2023-03-15T03:55:05.909Z,98571.38
2023-03-15T03:57:39.503Z,98570.91
2023-03-15T04:00:20.112Z,98570.53
2023-03-15T04:02:54.421Z,98583.06
2023-03-15T04:05:36.050Z,98571.88
2023-03-15T04:08:12.132Z,98570.63
2023-03-15T04:10:40.715Z,98577.38
2023-03-15T04:13:14.488Z,98574.63
2023-03-15T04:15:46.619Z,98573.34
2023-03-15T04:18:34.515Z,98576.25
2023-03-15T04:21:06.918Z,98588.09
2023-03-15T04:24:02.441Z,98588.53
2023-03-15T04:26:42.863Z,98586.06
2023-03-15T04:29:32.173Z,98591.56
2023-03-15T04:32:19.654Z,98600.16
2023-03-15T04:35:12.780Z,98603.63
2023-03-15T04:38:07.915Z,98610.03
2023-03-15T04:40:56.948Z,98631.84
2023-03-15T04:43:52.189Z,98622.47
2023-03-15T04:46:52.497Z,98613.09
2023-03-15T04:49:35.498Z,98615.56
2023-03-15T04:52:21.053Z,98630.06
2023-03-15T04:55:08.434Z,98629.66
2023-03-15T04:57:57.404Z,98634.53
2023-03-15T05:00:46.353Z,98635.16
2023-03-15T05:06:53.784Z,98634.97
2023-03-15T05:09:40.280Z,98637.03
2023-03-15T05:12:34.005Z,98644.97
2023-03-15T05:15:17.487Z,98639.69
2023-03-15T05:18:00.930Z,98642.13
2023-03-15T05:21:10.594Z,98644.56
2023-03-15T05:23:48.360Z,98663.56
2023-03-15T05:26:32.108Z,98652.53
2023-03-15T05:29:16.147Z,98651.13
2023-03-15T05:32:06.818Z,98649.69
2023-03-15T05:35:07.774Z,98656.41
2023-03-15T05:37:43.903Z,98657.44
2023-03-15T05:40:39.086Z,98665.81
2023-03-15T05:43:18.648Z,98665.00
2023-03-15T05:45:55.086Z,98658.06
2023-03-15T05:48:38.412Z,98673.16
2023-03-15T05:51:27.972Z,98679.69
2023-03-15T05:54:18.537Z,98686.84
2023-03-15T05:57:14.591Z,98705.81
2023-03-15T06:00:16.756Z,98701.50
2023-03-15T06:02:51.528Z,98696.81
2023-03-15T06:05:43.419Z,98714.78
2023-03-15T06:08:17.681Z,98714.59
2023-03-15T06:10:52.055Z,98727.66
2023-03-15T06:13:22.557Z,98727.44
2023-03-15T06:15:50.951Z,98731.91
2023-03-15T06:18:27.375Z,98733.34
2023-03-15T06:20:55.653Z,98736.84
2023-03-15T06:23:25.617Z,98747.66
2023-03-15T06:25:53.204Z,98742.53
2023-03-15T06:28:21.819Z,98756.84
2023-03-15T06:31:06.806Z,98759.72
2023-03-15T06:33:48.804Z,98765.00
2023-03-15T06:36:16.292Z,98779.50
2023-03-15T06:38:52.306Z,98765.41
2023-03-15T06:41:24.773Z,98764.59
2023-03-15T06:44:00.710Z,98768.22
2023-03-15T06:46:35.284Z,98771.28
2023-03-15T06:49:10.877Z,98776.94
2023-03-15T06:51:39.045Z,98792.72
2023-03-15T06:54:08.662Z,98806.19
2023-03-15T06:56:40.662Z,98809.38
2023-03-15T06:59:07.878Z,98817.66
2023-03-15T07:01:47.795Z,98834.41
2023-03-15T07:04:17.931Z,98837.53
2023-03-15T07:06:51.888Z,98849.44
2023-03-15T07:09:27.352Z,98859.28
2023-03-15T07:11:56.497Z,98857.56
2023-03-15T07:14:32.835Z,98853.19
2023-03-15T07:17:00.433Z,98871.22
2023-03-15T07:19:28.137Z,98861.88
2023-03-15T07:22:01.876Z,98875.72
2023-03-15T07:24:29.864Z,98862.75
2023-03-15T07:26:57.775Z,98871.25
2023-03-15T07:29:25.681Z,98864.94
2023-03-15T07:31:57.224Z,98879.09
2023-03-15T07:34:29.009Z,98881.25
2023-03-15T07:37:19.856Z,98883.88
2023-03-15T07:39:51.001Z,98881.50
2023-03-15T07:42:28.405Z,98882.84
2023-03-15T07:45:06.107Z,98888.53
2023-03-15T07:47:37.177Z,98897.81
2023-03-15T07:50:09.517Z,98888.16
2023-03-15T07:52:41.586Z,98884.88
2023-03-15T07:55:14.157Z,98900.59
2023-03-15T07:57:42.800Z,98885.69
2023-03-15T08:00:17.180Z,98886.97
2023-03-15T08:02:53.982Z,98883.44
2023-03-15T08:05:29.631Z,98894.97
2023-03-15T08:08:04.593Z,98914.19
2023-03-15T08:10:40.895Z,98902.53
2023-03-15T08:13:18.179Z,98898.75
2023-03-15T08:15:51.611Z,98902.88
2023-03-15T08:18:28.796Z,98923.19
2023-03-15T08:21:01.545Z,98915.25
2023-03-15T08:23:38.395Z,98922.75
2023-03-15T08:26:05.892Z,98938.69
2023-03-15T08:28:36.449Z,98924.94
2023-03-15T08:31:16.148Z,98935.94
2023-03-15T08:33:55.873Z,98959.72
2023-03-15T08:36:33.030Z,98941.00
2023-03-15T08:44:46.200Z,98959.34
2023-03-15T08:47:18.471Z,98969.63
2023-03-15T08:50:01.444Z,98969.53
2023-03-15T08:55:43.351Z,98970.16
2023-03-15T08:58:23.848Z,98988.56
2023-03-15T09:01:05.126Z,98973.13
2023-03-15T09:03:36.373Z,98990.13
2023-03-15T09:06:15.657Z,98988.69
2023-03-15T09:08:48.500Z,98999.97
2023-03-15T09:11:30.134Z,99010.81
2023-03-15T09:14:08.049Z,98995.63
2023-03-15T09:16:49.675Z,98992.84
2023-03-15T09:19:34.651Z,99002.66
2023-03-15T09:22:16.848Z,99003.03
2023-03-15T09:24:55.632Z,99019.53
2023-03-15T09:27:41.072Z,99005.78
2023-03-15T09:30:43.721Z,99014.47
2023-03-15T09:33:46.185Z,99026.00
2023-03-15T09:40:00.568Z,99026.84
2023-03-15T09:49:49.291Z,99027.19
2023-03-15T09:52:45.337Z,99026.75
2023-03-15T09:55:25.623Z,99028.53
2023-03-15T09:58:21.837Z,99035.75
2023-03-15T10:00:55.913Z,99034.75
2023-03-15T10:10:02.454Z,99036.72
2023-03-15T10:19:07.957Z,99024.78
2023-03-15T10:22:12.569Z,99038.97
2023-03-15T10:25:54.550Z,99029.09
2023-03-15T10:34:57.603Z,99050.53
2023-03-15T10:37:26.914Z,99046.53
2023-03-15T10:39:58.635Z,99026.06
2023-03-15T10:42:40.542Z,99050.72
2023-03-15T10:51:36.338Z,99032.09
2023-03-15T10:54:27.569Z,99034.41
2023-03-15T10:57:28.607Z,99021.72
2023-03-15T11:00:13.386Z,99027.63
2023-03-15T11:02:54.222Z,99036.16
2023-03-15T11:05:27.280Z,99038.97
2023-03-15T11:10:41.099Z,99032.19
2023-03-15T11:13:25.415Z,99037.38
2023-03-15T11:19:24.889Z,99038.38
2023-03-15T11:28:08.474Z,99032.81
2023-03-15T11:34:34.414Z,99039.94
2023-03-15T11:37:10.339Z,99049.69
2023-03-15T11:40:12.152Z,99056.72
2023-03-15T11:43:16.222Z,99050.84
2023-03-15T11:46:12.202Z,99045.81
2023-03-15T11:48:58.772Z,99049.44
2023-03-15T11:51:43.354Z,99042.44
2023-03-15T11:54:30.843Z,99057.00
2023-03-15T11:57:09.304Z,99056.34
2023-03-15T11:59:46.549Z,99052.59
2023-03-15T12:02:24.649Z,99037.94
2023-03-15T12:05:15.911Z,99050.88
2023-03-15T12:08:24.026Z,99050.50
2023-03-15T12:11:00.847Z,99041.56
2023-03-15T12:13:43.995Z,99049.69
2023-03-15T12:16:14.898Z,99038.72
2023-03-15T12:18:49.659Z,99043.63
2023-03-15T12:21:41.812Z,99029.53
2023-03-15T12:24:32.087Z,99014.53
2023-03-15T12:27:05.540Z,99032.22
2023-03-15T12:29:35.341Z,99031.63
2023-03-15T12:35:21.426Z,99032.34
2023-03-15T12:37:51.972Z,99043.41
2023-03-15T12:40:26.841Z,99037.78
2023-03-15T12:43:09.418Z,99037.59
2023-03-15T12:45:56.540Z,99040.69
2023-03-15T12:48:31.080Z,99030.81
2023-03-15T12:51:06.495Z,99032.09
2023-03-15T12:53:43.218Z,99033.22
2023-03-15T12:56:45.739Z,99051.44
2023-03-15T12:59:33.600Z,99046.63
2023-03-15T13:02:12.765Z,99047.09
2023-03-15T13:04:50.000Z,99043.63
2023-03-15T13:07:53.555Z,99042.97
2023-03-15T13:10:39.649Z,99029.22
2023-03-15T13:13:30.509Z,99034.38
2023-03-15T13:16:36.369Z,99037.78
2023-03-15T13:19:29.083Z,99031.59
2023-03-15T13:22:54.838Z,99040.44
2023-03-15T13:26:17.249Z,99045.38
2023-03-15T13:29:00.887Z,99045.63
2023-03-15T13:31:34.369Z,99042.81
2023-03-15T13:34:19.688Z,99039.38
2023-03-15T13:37:01.363Z,99048.97
2023-03-15T13:39:39.599Z,99046.88
2023-03-15T13:42:20.102Z,99051.38
2023-03-15T13:45:15.249Z,99049.28
2023-03-15T13:50:44.115Z,99057.19
2023-03-15T13:53:19.384Z,99055.22
2023-03-15T13:56:07.246Z,99054.63
2023-03-15T13:58:45.233Z,99051.88
2023-03-15T14:01:21.443Z,99054.25
2023-03-15T14:04:02.758Z,99043.22
2023-03-15T14:06:35.735Z,99048.13
2023-03-15T14:09:24.788Z,99053.22
2023-03-15T14:12:20.732Z,99060.91
2023-03-15T14:15:04.575Z,99060.47
2023-03-15T14:17:47.145Z,99055.59
2023-03-15T14:20:26.492Z,99060.16
2023-03-15T14:23:01.459Z,99060.41
2023-03-15T14:25:33.241Z,99062.13
2023-03-15T14:28:02.664Z,99060.38
2023-03-15T14:30:37.228Z,99056.66
2023-03-15T14:33:14.517Z,99060.56
2023-03-15T14:35:55.151Z,99052.41
2023-03-15T14:38:29.389Z,99064.22
2023-03-15T14:41:13.487Z,99055.78
2023-03-15T14:43:59.308Z,99058.28
2023-03-15T14:46:32.875Z,99065.63
2023-03-15T14:49:06.637Z,99063.75
2023-03-15T14:51:39.364Z,99072.63
2023-03-15T14:54:09.585Z,99054.31
2023-03-15T14:56:38.091Z,99065.16
2023-03-15T14:59:13.379Z,99072.00
2023-03-15T15:01:46.826Z,99062.44
2023-03-15T15:04:25.767Z,99066.72
2023-03-15T15:07:06.069Z,99065.72
2023-03-15T15:09:50.337Z,99059.81
2023-03-15T15:12:41.422Z,99074.25
2023-03-15T15:15:27.281Z,99073.81
2023-03-15T15:17:57.017Z,99077.91
2023-03-15T15:20:27.689Z,99072.09
2023-03-15T15:23:04.480Z,99081.38
2023-03-15T15:31:44.052Z,99088.31
2023-03-15T15:34:17.622Z,99093.47
2023-03-15T15:36:47.394Z,99091.00
2023-03-15T15:39:22.373Z,99092.97
2023-03-15T15:42:03.686Z,99103.50
2023-03-15T15:44:40.468Z,99110.00
2023-03-15T15:47:21.013Z,99101.69
2023-03-15T15:49:54.269Z,99112.97
2023-03-15T15:52:23.304Z,99114.34
2023-03-15T15:54:52.055Z,99109.13
2023-03-15T15:57:27.693Z,99121.22
2023-03-15T16:00:03.670Z,99141.06
2023-03-15T16:02:58.375Z,99132.06
2023-03-15T16:05:38.080Z,99131.00
2023-03-15T16:08:08.309Z,99139.56
2023-03-15T16:10:39.647Z,99149.72
2023-03-15T16:13:14.895Z,99148.59
2023-03-15T16:15:45.013Z,99150.28
2023-03-15T16:18:16.447Z,99149.72
2023-03-15T16:20:47.869Z,99147.97
2023-03-15T16:23:22.365Z,99173.81
2023-03-15T16:25:51.847Z,99161.19
2023-03-15T16:28:23.277Z,99178.06
2023-03-15T16:30:50.494Z,99170.28
2023-03-15T16:33:24.080Z,99168.25
2023-03-15T16:35:54.349Z,99185.09
2023-03-15T16:38:32.582Z,99176.91
2023-03-15T16:41:02.669Z,99194.34
2023-03-15T16:43:32.209Z,99182.72
2023-03-15T16:45:59.125Z,99206.31
2023-03-15T16:48:31.289Z,99208.78
2023-03-15T16:51:05.549Z,99209.00
2023-03-15T16:53:40.357Z,99198.56
2023-03-15T16:56:11.599Z,99217.59
2023-03-15T16:58:41.351Z,99213.28
2023-03-15T17:01:12.310Z,99213.91
2023-03-15T17:03:40.920Z,99221.72
2023-03-15T17:06:16.109Z,99227.84
2023-03-15T17:08:46.149Z,99227.44
2023-03-15T17:11:16.218Z,99225.16
2023-03-15T17:16:28.600Z,99255.22
2023-03-15T17:19:04.553Z,99251.75
2023-03-15T17:21:37.642Z,99262.81
2023-03-15T17:24:04.926Z,99275.88
2023-03-15T17:26:34.431Z,99282.63
2023-03-15T17:29:21.437Z,99294.91
2023-03-15T17:31:51.824Z,99301.06
2023-03-15T17:34:21.128Z,99300.03
2023-03-15T17:36:58.252Z,99302.44
2023-03-15T17:39:28.310Z,99311.84
2023-03-15T17:41:59.834Z,99314.31
2023-03-15T17:44:29.496Z,99311.75
2023-03-15T17:46:58.675Z,99326.47
2023-03-15T17:49:36.140Z,99317.47
2023-03-15T17:52:16.392Z,99320.34
2023-03-15T17:54:47.341Z,99324.97
2023-03-15T17:57:18.486Z,99340.84
2023-03-15T17:59:53.695Z,99344.72
2023-03-15T18:02:21.976Z,99344.72
2023-03-15T18:04:49.134Z,99342.84
2023-03-15T18:07:19.160Z,99348.16
2023-03-15T18:09:48.784Z,99357.97
2023-03-15T18:12:17.464Z,99353.66
2023-03-15T18:14:50.256Z,99363.94
2023-03-15T18:17:25.233Z,99350.00
2023-03-15T18:20:09.038Z,99364.03
2023-03-15T18:22:40.868Z,99365.19
2023-03-15T18:25:16.958Z,99357.13
2023-03-15T18:27:50.794Z,99356.31
2023-03-15T18:30:22.314Z,99362.28
2023-03-15T18:32:53.977Z,99364.88
2023-03-15T18:35:30.462Z,99369.41
2023-03-15T18:38:08.118Z,99371.75
2023-03-15T18:40:38.456Z,99366.22
2023-03-15T18:43:07.596Z,99376.84
2023-03-15T18:45:36.320Z,99366.66
2023-03-15T18:48:09.494Z,99360.78
2023-03-15T18:50:40.039Z,99369.56
2023-03-15T18:53:17.111Z,99367.75
2023-03-15T18:55:53.303Z,99363.13
2023-03-15T18:58:32.361Z,99363.47
2023-03-15T19:00:59.343Z,99374.00
2023-03-15T19:03:26.507Z,99376.09
2023-03-15T19:05:56.870Z,99373.81
2023-03-15T19:08:28.210Z,99380.81
2023-03-15T19:10:59.284Z,99370.19
2023-03-15T19:13:30.614Z,99376.41
2023-03-15T19:16:08.606Z,99375.81
2023-03-15T19:18:42.855Z,99384.19
2023-03-15T19:21:13.411Z,99376.41
2023-03-15T19:23:42.329Z,99378.69
2023-03-15T19:26:12.440Z,99379.72
2023-03-15T19:28:41.670Z,99387.94
2023-03-15T19:31:11.723Z,99390.09
2023-03-15T19:33:42.502Z,99407.78
2023-03-15T19:36:10.032Z,99404.25
2023-03-15T19:38:41.459Z,99407.88
2023-03-15T19:41:13.526Z,99400.31
2023-03-15T19:43:43.710Z,99410.94
2023-03-15T19:46:23.049Z,99401.25
2023-03-15T19:48:54.260Z,99409.75
2023-03-15T19:51:21.480Z,99414.25
2023-03-15T19:53:50.390Z,99420.31
2023-03-15T19:56:21.351Z,99418.09
2023-03-15T19:58:54.814Z,99412.59
2023-03-15T20:01:24.822Z,99410.09
2023-03-15T20:03:56.844Z,99418.50
2023-03-15T20:06:37.498Z,99420.25
2023-03-15T20:09:12.030Z,99412.91
2023-03-15T20:11:50.614Z,99415.28
2023-03-15T20:14:48.375Z,99420.50
2023-03-15T20:17:53.121Z,99427.09
2023-03-15T20:20:24.572Z,99422.84
2023-03-15T20:23:02.725Z,99432.81
2023-03-15T20:25:39.469Z,99432.72
2023-03-15T20:28:50.665Z,99449.31
2023-03-15T20:31:28.399Z,99443.06
2023-03-15T20:34:06.979Z,99447.00
2023-03-15T20:36:50.896Z,99456.53
2023-03-15T20:39:31.601Z,99455.53
2023-03-15T20:42:05.666Z,99445.75
2023-03-15T20:44:45.303Z,99454.81
2023-03-15T20:47:39.932Z,99454.03
2023-03-15T20:50:28.187Z,99460.75
2023-03-15T20:53:00.663Z,99465.31
2023-03-15T20:55:43.707Z,99469.09
2023-03-15T20:58:26.707Z,99471.38
2023-03-15T21:04:16.476Z,99482.38
2023-03-15T21:07:06.510Z,99486.88
2023-03-15T21:09:37.658Z,99475.03
2023-03-15T21:12:45.742Z,99488.41
2023-03-15T21:15:40.506Z,99496.66
2023-03-15T21:21:48.218Z,99503.13
2023-03-15T21:24:19.092Z,99489.84
2023-03-15T21:27:18.986Z,99511.91
2023-03-15T21:30:51.160Z,99515.91
2023-03-15T21:33:42.170Z,99517.84
2023-03-15T21:36:24.975Z,99518.81
2023-03-15T21:39:09.848Z,99517.28
2023-03-15T21:58:06.869Z,99523.56
2023-03-15T22:04:01.736Z,99519.06
2023-03-15T22:17:15.983Z,99542.44
2023-03-15T22:23:07.634Z,99545.88
2023-03-15T22:29:35.672Z,99547.25
2023-03-15T22:32:39.683Z,99552.41
2023-03-15T22:36:03.653Z,99547.19
2023-03-15T22:42:22.778Z,99546.75
2023-03-15T22:45:08.996Z,99550.25
2023-03-15T22:47:41.750Z,99551.50
2023-03-15T22:50:38.418Z,99555.28
2023-03-15T22:54:13.006Z,99561.38
2023-03-15T22:56:47.533Z,99563.91
2023-03-15T22:59:24.561Z,99574.50
2023-03-15T23:02:03.212Z,99580.13
2023-03-15T23:07:24.865Z,99583.41
2023-03-15T23:10:45.572Z,99587.91
2023-03-15T23:13:57.147Z,99592.38
2023-03-15T23:16:39.313Z,99594.72
2023-03-15T23:19:22.961Z,99586.00
2023-03-15T23:24:48.792Z,99590.94
2023-03-15T23:28:01.363Z,99596.59
2023-03-15T23:30:49.624Z,99601.91
2023-03-15T23:33:21.056Z,99608.13
2023-03-15T23:36:14.204Z,99612.84
2023-03-15T23:39:36.203Z,99619.09
2023-03-15T23:49:12.827Z,99621.16
